createdAt,value
2022-12-18T00:01:30.302Z,7.10
2022-12-18T00:04:50.241Z,8.10
2022-12-18T00:08:12.517Z,7.75
2022-12-18T00:11:37.570Z,8.07
2022-12-18T00:14:56.876Z,8.18
2022-12-18T00:18:18.961Z,6.55
2022-12-18T00:21:40.533Z,5.65
2022-12-18T00:25:00.347Z,6.60
2022-12-18T00:28:20.705Z,6.20
2022-12-18T00:31:46.854Z,6.30
2022-12-18T00:35:07.169Z,6.15
2022-12-18T00:37:37.180Z,5.53
2022-12-18T00:40:58.913Z,6.10
2022-12-18T00:44:19.170Z,7.30
2022-12-18T00:47:47.201Z,6.85
2022-12-18T00:51:09.339Z,6.43
2022-12-18T00:54:31.622Z,5.68
2022-12-18T00:57:52.112Z,6.32
2022-12-18T01:01:14.310Z,7.25
2022-12-18T01:08:04.386Z,6.65
2022-12-18T01:11:23.833Z,6.97
2022-12-18T01:14:44.570Z,6.32
2022-12-18T01:18:03.906Z,8.60
2022-12-18T01:21:24.090Z,6.82
2022-12-18T01:24:49.565Z,6.40
2022-12-18T01:28:09.621Z,6.90
2022-12-18T01:31:29.971Z,6.75
2022-12-18T01:34:50.253Z,7.95
2022-12-18T01:38:09.518Z,7.03
2022-12-18T01:41:29.746Z,6.43
2022-12-18T01:45:07.925Z,7.07
2022-12-18T01:48:32.226Z,8.02
2022-12-18T01:51:51.395Z,7.72
2022-12-18T01:55:13.826Z,8.02
2022-12-18T01:58:47.645Z,8.65
2022-12-18T02:02:07.430Z,7.70
2022-12-18T02:05:46.774Z,7.30
2022-12-18T02:09:36.587Z,9.75
2022-12-18T02:13:01.922Z,8.18
2022-12-18T02:16:30.307Z,8.80
2022-12-18T02:19:55.777Z,7.75
2022-12-18T02:23:39.257Z,8.33
2022-12-18T02:27:06.117Z,8.77
2022-12-18T02:30:32.842Z,7.90
2022-12-18T02:33:56.762Z,8.95
2022-12-18T02:37:19.300Z,8.48
2022-12-18T02:40:43.536Z,7.90
2022-12-18T02:44:09.663Z,10.90
2022-12-18T02:47:32.131Z,8.52
2022-12-18T02:51:08.616Z,8.43
2022-12-18T02:54:51.372Z,8.50
2022-12-18T02:58:45.825Z,8.57
2022-12-18T03:02:27.055Z,9.40
2022-12-18T03:05:59.881Z,8.63
2022-12-18T03:09:23.051Z,9.30
2022-12-18T03:13:04.232Z,8.95
2022-12-18T03:16:32.460Z,9.00
2022-12-18T03:20:01.257Z,9.18
2022-12-18T03:23:29.638Z,8.85
2022-12-18T03:26:53.488Z,7.32
2022-12-18T03:30:13.773Z,7.70
2022-12-18T03:34:03.542Z,8.82
2022-12-18T03:37:22.785Z,9.00
2022-12-18T03:40:53.184Z,8.25
2022-12-18T03:44:34.291Z,8.90
2022-12-18T03:48:12.418Z,7.05
2022-12-18T03:51:56.134Z,8.27
2022-12-18T03:55:16.338Z,7.18
2022-12-18T03:58:37.863Z,10.48
2022-12-18T04:02:00.918Z,8.98
2022-12-18T04:05:21.800Z,7.07
2022-12-18T04:08:45.211Z,7.22
2022-12-18T04:12:04.766Z,8.32
2022-12-18T04:15:29.909Z,7.68
2022-12-18T04:18:50.273Z,9.45
2022-12-18T04:22:16.728Z,8.70
2022-12-18T04:25:35.874Z,9.15
2022-12-18T04:28:56.161Z,9.80
2022-12-18T04:32:15.470Z,7.93
2022-12-18T04:35:40.753Z,11.02
2022-12-18T04:39:05.876Z,10.50
2022-12-18T04:42:26.374Z,8.93
2022-12-18T04:45:48.725Z,8.30
2022-12-18T04:49:08.296Z,8.48
2022-12-18T04:52:27.560Z,8.88
2022-12-18T04:55:46.743Z,7.63
2022-12-18T04:59:05.930Z,8.75
2022-12-18T05:02:26.555Z,8.30
2022-12-18T05:05:45.816Z,8.43
2022-12-18T05:09:05.793Z,7.72
2022-12-18T05:12:25.701Z,8.45
2022-12-18T05:15:52.560Z,7.97
2022-12-18T05:19:11.902Z,7.93
2022-12-18T05:22:34.177Z,8.55
2022-12-18T05:25:57.693Z,7.50
2022-12-18T05:29:25.492Z,8.15
2022-12-18T05:32:44.754Z,8.05
2022-12-18T05:36:06.795Z,8.75
2022-12-18T05:39:27.378Z,8.98
2022-12-18T05:42:46.532Z,8.52
2022-12-18T05:46:11.831Z,8.75
2022-12-18T05:49:31.781Z,8.35
2022-12-18T05:52:54.044Z,9.15
2022-12-18T05:56:18.032Z,8.05
2022-12-18T05:59:40.457Z,7.47
2022-12-18T06:03:00.326Z,8.85
2022-12-18T06:06:22.807Z,8.73
2022-12-18T06:09:48.791Z,7.85
2022-12-18T06:13:09.814Z,12.13
2022-12-18T06:16:32.700Z,9.25
2022-12-18T06:19:52.669Z,8.27
2022-12-18T06:23:11.825Z,9.40
2022-12-18T06:26:34.318Z,7.65
2022-12-18T06:29:53.488Z,7.32
2022-12-18T06:33:12.718Z,9.98
2022-12-18T06:36:32.141Z,8.95
2022-12-18T06:46:44.863Z,8.57
2022-12-18T06:50:04.169Z,10.32
2022-12-18T06:53:26.013Z,9.32
2022-12-18T06:56:46.400Z,8.85
2022-12-18T07:00:07.952Z,9.63
2022-12-18T07:03:27.374Z,10.00
2022-12-18T07:06:46.882Z,10.63
2022-12-18T07:10:09.342Z,10.48
2022-12-18T07:13:30.701Z,8.80
2022-12-18T07:16:57.941Z,9.45
2022-12-18T07:20:19.810Z,10.52
2022-12-18T07:23:39.447Z,9.77
2022-12-18T07:27:01.889Z,10.43
2022-12-18T07:30:21.017Z,10.80
2022-12-18T07:33:42.300Z,10.20
2022-12-18T07:37:03.841Z,10.05
2022-12-18T07:40:21.280Z,9.73
2022-12-18T07:42:47.999Z,10.40
2022-12-18T07:45:14.690Z,11.18
2022-12-18T07:47:48.970Z,10.18
2022-12-18T07:50:18.434Z,9.35
2022-12-18T07:52:46.482Z,10.55
2022-12-18T07:55:16.881Z,9.00
2022-12-18T07:57:53.321Z,11.18
2022-12-18T08:00:22.441Z,10.25
2022-12-18T08:02:49.405Z,9.57
2022-12-18T08:06:09.282Z,10.35
2022-12-18T08:08:53.589Z,12.05
2022-12-18T08:11:24.516Z,10.30
2022-12-18T08:13:51.465Z,9.52
2022-12-18T08:16:19.548Z,11.48
2022-12-18T08:18:53.183Z,10.32
2022-12-18T08:21:28.592Z,10.90
2022-12-18T08:23:57.947Z,10.98
2022-12-18T08:26:26.656Z,11.13
2022-12-18T08:28:55.768Z,11.10
2022-12-18T08:31:25.993Z,11.05
2022-12-18T08:33:54.056Z,11.60
2022-12-18T08:36:22.982Z,9.40
2022-12-18T08:38:50.888Z,10.68
2022-12-18T08:41:18.896Z,9.38
2022-12-18T08:43:48.483Z,11.20
2022-12-18T08:46:19.624Z,9.13
2022-12-18T08:48:49.241Z,8.68
2022-12-18T08:51:39.646Z,11.55
2022-12-18T08:54:07.360Z,12.38
2022-12-18T08:58:39.213Z,10.05
2022-12-18T09:01:08.917Z,9.43
2022-12-18T09:03:38.347Z,9.15
2022-12-18T09:07:48.608Z,8.55
2022-12-18T09:10:15.382Z,10.27
2022-12-18T09:12:47.901Z,10.95
2022-12-18T09:15:17.311Z,10.15
2022-12-18T09:20:33.730Z,9.25
2022-12-18T09:25:11.771Z,8.82
2022-12-18T09:27:39.979Z,7.75
2022-12-18T09:30:07.565Z,8.98
2022-12-18T09:32:38.587Z,9.57
2022-12-18T09:35:06.301Z,9.32
2022-12-18T09:37:36.406Z,8.35
2022-12-18T09:40:05.097Z,9.68
2022-12-18T09:42:40.328Z,8.85
2022-12-18T09:45:16.626Z,9.05
2022-12-18T09:47:46.660Z,8.77
2022-12-18T09:50:19.243Z,9.43
2022-12-18T09:52:57.618Z,7.27
2022-12-18T09:55:38.992Z,10.45
2022-12-18T09:58:17.151Z,9.38
2022-12-18T10:00:45.127Z,9.98
2022-12-18T10:03:22.971Z,8.73
2022-12-18T10:06:42.634Z,8.30
2022-12-18T10:09:32.325Z,8.77
2022-12-18T10:12:05.117Z,9.50
2022-12-18T10:14:50.180Z,10.05
2022-12-18T10:17:22.914Z,9.65
2022-12-18T10:20:03.409Z,8.48
2022-12-18T10:22:52.692Z,10.00
2022-12-18T10:26:02.685Z,7.70
2022-12-18T10:28:33.606Z,8.43
2022-12-18T10:31:00.682Z,8.43
2022-12-18T10:33:34.478Z,9.23
2022-12-18T10:36:01.812Z,12.77
2022-12-18T10:38:31.233Z,9.40
2022-12-18T10:41:25.831Z,9.40
2022-12-18T10:44:24.455Z,9.38
2022-12-18T10:47:08.684Z,9.43
2022-12-18T10:49:43.893Z,9.55
2022-12-18T10:52:19.551Z,9.52
2022-12-18T10:55:04.969Z,9.13
2022-12-18T10:57:36.631Z,10.15
2022-12-18T11:00:26.319Z,9.95
2022-12-18T11:02:53.533Z,9.40
2022-12-18T11:05:32.957Z,10.10
2022-12-18T11:08:00.510Z,8.98
2022-12-18T11:10:35.797Z,9.00
2022-12-18T11:13:29.670Z,9.02
2022-12-18T11:16:02.745Z,9.35
2022-12-18T11:18:32.990Z,9.20
2022-12-18T11:21:11.499Z,9.57
2022-12-18T11:23:50.490Z,8.80
2022-12-18T11:26:17.686Z,8.80
2022-12-18T11:28:46.388Z,8.95
2022-12-18T11:31:29.355Z,8.23
2022-12-18T11:34:28.600Z,9.38
2022-12-18T11:37:00.345Z,9.45
2022-12-18T11:39:49.418Z,9.38
2022-12-18T11:42:37.783Z,8.43
2022-12-18T11:45:28.674Z,8.88
2022-12-18T11:48:29.146Z,9.13
2022-12-18T11:51:02.689Z,8.95
2022-12-18T11:53:31.426Z,8.60
2022-12-18T11:56:27.517Z,8.52
2022-12-18T11:59:15.249Z,11.32
2022-12-18T12:02:01.377Z,7.65
2022-12-18T12:04:39.406Z,8.00
2022-12-18T12:07:14.088Z,7.95
2022-12-18T12:10:12.590Z,10.65
2022-12-18T12:12:59.939Z,9.43
2022-12-18T12:15:29.919Z,8.43
2022-12-18T12:18:16.171Z,8.55
2022-12-18T12:21:08.813Z,10.68
2022-12-18T12:23:45.990Z,8.50
2022-12-18T12:26:37.872Z,9.75
2022-12-18T12:29:29.148Z,7.75
2022-12-18T12:32:23.880Z,7.90
2022-12-18T12:35:02.594Z,8.45
2022-12-18T12:37:59.390Z,9.88
2022-12-18T12:43:32.001Z,8.00
2022-12-18T12:46:21.125Z,8.43
2022-12-18T12:48:59.312Z,8.10
2022-12-18T12:51:34.824Z,9.55
2022-12-18T12:54:04.113Z,9.57
2022-12-18T12:57:08.840Z,8.38
2022-12-18T12:59:57.361Z,9.50
2022-12-18T13:02:58.216Z,8.85
2022-12-18T13:05:35.634Z,10.55
2022-12-18T13:08:26.843Z,8.32
2022-12-18T13:10:57.159Z,9.55
2022-12-18T13:13:44.442Z,9.13
2022-12-18T13:16:13.469Z,8.75
2022-12-18T13:18:50.054Z,9.45
2022-12-18T13:21:31.028Z,11.00
2022-12-18T13:24:15.595Z,9.10
2022-12-18T13:26:45.583Z,9.32
2022-12-18T13:29:12.603Z,9.57
2022-12-18T13:31:42.653Z,10.65
2022-12-18T13:34:30.235Z,10.32
2022-12-18T13:37:32.825Z,9.00
2022-12-18T13:40:40.186Z,10.00
2022-12-18T13:43:18.770Z,9.07
2022-12-18T13:46:06.901Z,9.43
2022-12-18T13:48:38.576Z,8.85
2022-12-18T13:51:17.587Z,9.50
2022-12-18T13:53:49.088Z,10.75
2022-12-18T13:56:18.030Z,10.32
2022-12-18T13:58:55.396Z,10.32
2022-12-18T14:01:33.335Z,9.45
2022-12-18T14:04:26.314Z,10.02
2022-12-18T14:07:18.606Z,9.55
2022-12-18T14:10:18.606Z,10.35
2022-12-18T14:12:52.265Z,10.18
2022-12-18T14:15:27.696Z,10.35
2022-12-18T14:18:00.066Z,11.18
2022-12-18T14:20:29.058Z,10.57
2022-12-18T14:22:57.590Z,11.43
2022-12-18T14:25:33.173Z,11.23
2022-12-18T14:28:07.964Z,9.63
2022-12-18T14:30:43.889Z,13.05
2022-12-18T14:33:15.573Z,11.35
2022-12-18T14:35:52.877Z,12.13
2022-12-18T14:38:26.916Z,10.07
2022-12-18T14:41:15.309Z,11.38
2022-12-18T14:43:44.502Z,11.52
2022-12-18T14:46:31.236Z,11.23
2022-12-18T14:48:58.329Z,12.35
2022-12-18T14:51:31.372Z,13.50
2022-12-18T14:54:04.015Z,14.70
2022-12-18T14:56:33.149Z,14.38
2022-12-18T14:59:13.066Z,13.55
2022-12-18T15:01:58.834Z,13.45
2022-12-18T15:04:39.933Z,14.30
2022-12-18T15:07:16.067Z,15.57
2022-12-18T15:10:08.778Z,13.40
2022-12-18T15:12:46.969Z,15.15
2022-12-18T15:15:54.542Z,14.35
2022-12-18T15:18:36.018Z,13.52
2022-12-18T15:21:11.324Z,14.05
2022-12-18T15:23:52.980Z,13.30
2022-12-18T15:26:22.349Z,14.82
2022-12-18T15:28:51.705Z,13.57
2022-12-18T15:31:18.554Z,14.27
2022-12-18T15:34:13.043Z,14.65
2022-12-18T15:36:43.171Z,13.53
2022-12-18T15:39:13.054Z,12.93
2022-12-18T15:41:39.934Z,14.57
2022-12-18T15:44:27.773Z,16.10
2022-12-18T15:46:58.211Z,15.13
2022-12-18T15:49:25.290Z,15.25
2022-12-18T15:52:00.472Z,14.50
2022-12-18T15:54:27.732Z,14.27
2022-12-18T15:56:57.464Z,16.70
2022-12-18T15:59:28.470Z,14.88
2022-12-18T16:01:56.708Z,17.23
2022-12-18T16:04:24.633Z,17.30
2022-12-18T16:07:13.793Z,17.30
2022-12-18T16:09:38.848Z,15.48
2022-12-18T16:12:07.283Z,14.73
2022-12-18T16:14:34.313Z,18.48
2022-12-18T16:17:03.913Z,14.68
2022-12-18T16:19:33.939Z,16.10
2022-12-18T16:22:05.641Z,15.80
2022-12-18T16:24:35.020Z,19.20
2022-12-18T16:27:02.017Z,15.23
2022-12-18T16:29:29.927Z,16.55
2022-12-18T16:32:01.449Z,18.92
2022-12-18T16:34:35.602Z,17.38
2022-12-18T16:39:34.726Z,14.68
2022-12-18T16:42:15.463Z,14.77
2022-12-18T16:44:43.190Z,12.05
2022-12-18T16:47:12.930Z,12.52
2022-12-18T16:49:44.304Z,16.73
2022-12-18T16:52:13.282Z,16.70
2022-12-18T16:54:40.087Z,13.73
2022-12-18T16:57:14.127Z,18.95
2022-12-18T16:59:40.977Z,16.55
2022-12-18T17:02:17.194Z,17.10
2022-12-18T17:04:47.121Z,18.27
2022-12-18T17:07:17.571Z,17.60
2022-12-18T17:09:46.696Z,17.35
2022-12-18T17:12:16.993Z,20.70
2022-12-18T17:14:46.260Z,21.02
2022-12-18T17:17:22.770Z,21.40
2022-12-18T17:19:51.175Z,19.70
2022-12-18T17:22:18.029Z,19.25
2022-12-18T17:24:44.820Z,19.20
2022-12-18T17:27:11.665Z,18.70
2022-12-18T17:29:43.877Z,22.60
2022-12-18T17:32:13.681Z,20.95
2022-12-18T17:34:43.355Z,17.75
2022-12-18T17:37:10.057Z,25.33
2022-12-18T17:39:37.303Z,26.95
2022-12-18T17:42:05.805Z,20.55
2022-12-18T17:44:34.928Z,21.92
2022-12-18T17:47:02.248Z,21.70
2022-12-18T17:49:29.338Z,22.35
2022-12-18T17:51:59.285Z,21.83
2022-12-18T17:54:26.220Z,23.65
2022-12-18T17:56:53.013Z,27.13
2022-12-18T17:59:19.787Z,29.73
2022-12-18T18:01:46.798Z,23.13
2022-12-18T18:04:14.423Z,25.85
2022-12-18T18:06:44.161Z,23.13
2022-12-18T18:09:16.122Z,21.42
2022-12-18T18:11:45.145Z,25.35
2022-12-18T18:14:20.215Z,21.83
2022-12-18T18:16:51.459Z,25.60
2022-12-18T18:19:20.630Z,23.02
2022-12-18T18:21:49.530Z,28.23
2022-12-18T18:24:19.368Z,27.75
2022-12-18T18:26:46.432Z,23.23
2022-12-18T18:29:24.223Z,25.48
2022-12-18T18:31:56.824Z,23.98
2022-12-18T18:34:26.487Z,22.60
2022-12-18T18:36:53.251Z,29.00
2022-12-18T18:39:20.306Z,22.85
2022-12-18T18:41:48.639Z,30.13
2022-12-18T18:44:16.814Z,27.20
2022-12-18T18:46:43.784Z,23.08
2022-12-18T18:49:11.201Z,24.95
2022-12-18T18:51:37.907Z,23.77
2022-12-18T18:54:04.913Z,27.23
2022-12-18T18:59:19.262Z,26.70
2022-12-18T19:01:49.717Z,32.22
2022-12-18T19:04:16.628Z,31.75
2022-12-18T19:06:43.411Z,26.27
2022-12-18T19:09:14.469Z,30.58
2022-12-18T19:11:41.619Z,26.58
2022-12-18T19:14:11.002Z,30.33
2022-12-18T19:16:38.022Z,25.95
2022-12-18T19:19:05.575Z,28.88
2022-12-18T19:21:34.762Z,26.98
2022-12-18T19:24:04.935Z,27.92
2022-12-18T19:26:31.723Z,27.23
2022-12-18T19:29:17.346Z,30.60
2022-12-18T19:31:44.325Z,28.02
2022-12-18T19:34:11.558Z,29.60
2022-12-18T19:36:40.031Z,26.15
2022-12-18T19:39:15.578Z,31.60
2022-12-18T19:41:42.970Z,27.90
2022-12-18T19:44:12.046Z,27.98
2022-12-18T19:46:40.986Z,27.63
2022-12-18T19:49:11.126Z,27.10
2022-12-18T19:51:38.619Z,31.05
2022-12-18T19:54:05.625Z,29.30
2022-12-18T19:56:34.618Z,23.92
2022-12-18T19:59:02.611Z,21.58
2022-12-18T20:01:30.459Z,20.38
2022-12-18T20:03:58.952Z,21.23
2022-12-18T20:06:35.497Z,22.25
2022-12-18T20:09:11.408Z,19.75
2022-12-18T20:11:42.054Z,25.55
2022-12-18T20:14:10.394Z,19.80
2022-12-18T20:16:37.701Z,23.48
2022-12-18T20:19:06.924Z,23.38
2022-12-18T20:21:36.759Z,22.00
2022-12-18T20:24:03.685Z,26.75
2022-12-18T20:26:30.935Z,29.05
2022-12-18T20:28:57.986Z,29.30
2022-12-18T20:31:29.507Z,24.50
2022-12-18T20:34:00.285Z,29.50
2022-12-18T20:36:29.632Z,27.75
2022-12-18T20:39:00.532Z,24.25
2022-12-18T20:41:37.243Z,31.08
2022-12-18T20:44:05.168Z,27.85
2022-12-18T20:46:36.612Z,31.85
2022-12-18T20:49:09.723Z,27.95
2022-12-18T20:51:37.283Z,30.55
2022-12-18T20:54:07.935Z,30.50
2022-12-18T20:56:37.203Z,25.27
2022-12-18T20:59:09.401Z,23.55
2022-12-18T21:01:36.290Z,20.92
2022-12-18T21:04:05.301Z,29.52
2022-12-18T21:06:32.057Z,36.13
2022-12-18T21:09:01.383Z,36.03
2022-12-18T21:11:32.730Z,34.08
2022-12-18T21:14:00.142Z,35.03
2022-12-18T21:16:27.227Z,36.45
2022-12-18T21:18:54.975Z,36.35
2022-12-18T21:21:26.393Z,30.50
2022-12-18T21:23:53.761Z,35.63
2022-12-18T21:26:29.162Z,40.38
2022-12-18T21:28:58.307Z,39.65
2022-12-18T21:31:28.665Z,41.13
2022-12-18T21:34:00.949Z,40.65
2022-12-18T21:36:34.805Z,39.58
2022-12-18T21:39:02.135Z,44.00
2022-12-18T21:41:29.380Z,37.03
2022-12-18T21:43:56.311Z,38.80
2022-12-18T21:46:23.075Z,33.70
2022-12-18T21:48:49.796Z,35.83
2022-12-18T21:51:16.626Z,34.10
2022-12-18T21:53:47.040Z,34.70
2022-12-18T21:56:15.825Z,35.65
2022-12-18T21:58:55.787Z,33.20
2022-12-18T22:01:24.277Z,30.80
2022-12-18T22:04:00.954Z,36.10
2022-12-18T22:06:27.709Z,33.35
2022-12-18T22:08:57.655Z,31.92
2022-12-18T22:11:24.616Z,33.10
2022-12-18T22:13:51.471Z,34.25
2022-12-18T22:16:18.293Z,32.55
2022-12-18T22:18:45.039Z,33.42
2022-12-18T22:21:45.508Z,34.33
2022-12-18T22:24:19.653Z,35.70
2022-12-18T22:26:46.827Z,37.30
2022-12-18T22:29:19.033Z,34.90
2022-12-18T22:31:46.198Z,41.15
2022-12-18T22:34:13.803Z,40.78
2022-12-18T22:36:43.143Z,41.97
2022-12-18T22:39:18.204Z,50.80
2022-12-18T22:41:45.667Z,48.55
2022-12-18T22:44:15.186Z,48.22
2022-12-18T22:46:47.818Z,49.67
2022-12-18T22:49:21.465Z,51.97
2022-12-18T22:51:49.005Z,50.60
2022-12-18T22:54:19.475Z,48.42
2022-12-18T22:56:52.843Z,49.17
2022-12-18T22:59:23.964Z,54.10
2022-12-18T23:01:58.923Z,60.60
2022-12-18T23:04:36.625Z,69.85
2022-12-18T23:07:06.815Z,66.70
2022-12-18T23:09:33.753Z,59.10
2022-12-18T23:12:03.799Z,84.50
2022-12-18T23:14:31.005Z,86.85
2022-12-18T23:17:03.297Z,68.35
2022-12-18T23:19:31.250Z,88.15
2022-12-18T23:21:58.590Z,103.95
2022-12-18T23:24:50.898Z,76.35
2022-12-18T23:27:17.898Z,83.93
2022-12-18T23:29:50.313Z,83.32
2022-12-18T23:32:18.633Z,110.10
2022-12-18T23:34:45.388Z,79.38
2022-12-18T23:37:12.255Z,64.35
2022-12-18T23:39:38.989Z,103.43
2022-12-18T23:42:05.834Z,88.53
2022-12-18T23:44:32.644Z,85.50
2022-12-18T23:47:01.801Z,94.03
2022-12-18T23:49:28.578Z,67.43
2022-12-18T23:51:56.893Z,73.90
2022-12-18T23:54:30.177Z,73.15
2022-12-18T23:57:02.572Z,86.22
2022-12-18T23:59:29.470Z,75.28
